Time;durP1;ratioP1;P1;durP2;ratioP2;P2;SDS_P1;SDS_P2;PMS_P1;PMS_P2;Temp;Humidity;BMP_temperature;BMP_pressure;BME280_temperature;BME280_humidity;BME280_pressure;Samples;Min_cycle;Max_cycle;Signal;HPM_P1;HPM_P2
2022/12/18 00:02:19;;;;;;;49.35;26.67;;;14.70;67.10;;;;;;4161008;28;20563;-59
2022/12/18 00:05:00;;;;;;;49.15;28.52;;;14.70;66.00;;;;;;4161165;28;20047;-63
2022/12/18 00:07:40;;;;;;;52.78;28.25;;;14.70;65.80;;;;;;4160933;28;20056;-64
2022/12/18 00:10:21;;;;;;;45.70;26.20;;;14.60;65.60;;;;;;4160448;28;20052;-63
2022/12/18 00:13:04;;;;;;;52.53;27.98;;;14.60;65.90;;;;;;4157360;28;20061;-63
2022/12/18 00:15:48;;;;;;;46.13;25.63;;;14.70;65.80;;;;;;4160588;28;20052;-63
2022/12/18 00:18:29;;;;;;;48.30;25.70;;;14.80;65.50;;;;;;4158596;28;20052;-63
2022/12/18 00:21:12;;;;;;;50.83;27.42;;;14.80;65.00;;;;;;4160655;28;20119;-59
2022/12/18 00:23:53;;;;;;;53.13;28.83;;;14.90;64.80;;;;;;4160591;28;20056;-60
2022/12/18 00:26:35;;;;;;;54.00;28.95;;;14.80;64.60;;;;;;4160731;28;20374;-59
2022/12/18 00:29:18;;;;;;;50.42;26.85;;;14.80;64.80;;;;;;4159823;28;20419;-59
2022/12/18 00:31:59;;;;;;;50.42;28.25;;;14.90;64.90;;;;;;4158220;28;20055;-59
2022/12/18 00:34:40;;;;;;;51.85;27.60;;;14.90;64.60;;;;;;4159543;28;20068;-59
2022/12/18 00:37:22;;;;;;;49.08;27.17;;;14.90;64.50;;;;;;4160324;28;20072;-62
2022/12/18 00:40:05;;;;;;;49.33;26.95;;;15.00;64.20;;;;;;4159362;28;20651;-63
2022/12/18 00:42:57;;;;;;;46.85;26.50;;;15.00;64.00;;;;;;4160523;28;20056;-63
2022/12/18 00:45:39;;;;;;;41.50;24.33;;;14.90;63.80;;;;;;4159625;28;20056;-63
2022/12/18 00:48:20;;;;;;;49.10;27.45;;;14.90;64.00;;;;;;4143982;28;20261;-62
2022/12/18 00:51:01;;;;;;;45.75;24.60;;;14.90;64.90;;;;;;4143734;28;20048;-63
2022/12/18 00:53:42;;;;;;;45.10;25.25;;;14.90;64.00;;;;;;4142979;28;20184;-62
2022/12/18 00:56:23;;;;;;;46.63;25.45;;;14.80;63.90;;;;;;4145575;28;20095;-62
2022/12/18 00:59:06;;;;;;;42.58;22.52;;;14.80;64.00;;;;;;4147242;28;20053;-62
2022/12/18 01:01:48;;;;;;;43.03;24.58;;;14.80;64.30;;;;;;4159788;28;20052;-62
2022/12/18 01:04:32;;;;;;;44.00;25.48;;;14.80;64.30;;;;;;4158832;28;20047;-63
2022/12/18 01:07:14;;;;;;;42.97;24.58;;;14.90;64.00;;;;;;4159441;28;20059;-63
2022/12/18 01:09:55;;;;;;;47.90;26.17;;;14.90;63.70;;;;;;4142240;28;20540;-63
2022/12/18 01:12:35;;;;;;;46.28;26.45;;;14.90;63.70;;;;;;4143353;28;20512;-64
2022/12/18 01:15:17;;;;;;;45.70;25.83;;;14.90;63.90;;;;;;4143303;28;20077;-63
2022/12/18 01:17:59;;;;;;;45.72;25.23;;;14.90;63.80;;;;;;4155476;28;20056;-64
2022/12/18 01:20:40;;;;;;;42.20;24.42;;;15.00;63.60;;;;;;4158075;28;20064;-64
2022/12/18 01:23:21;;;;;;;43.90;24.47;;;15.00;63.40;;;;;;4159637;28;20044;-65
2022/12/18 01:26:06;;;;;;;44.95;24.88;;;14.90;63.40;;;;;;4158335;28;20052;-64
2022/12/18 01:28:49;;;;;;;46.15;24.92;;;14.90;63.40;;;;;;4158358;28;20106;-64
2022/12/18 01:31:32;;;;;;;49.05;25.63;;;14.90;63.50;;;;;;4159610;28;20077;-63
2022/12/18 01:34:17;;;;;;;48.03;26.48;;;14.80;63.80;;;;;;4159432;28;20060;-63
2022/12/18 01:36:58;;;;;;;47.95;25.45;;;14.80;64.00;;;;;;4159311;28;20057;-63
2022/12/18 01:39:38;;;;;;;51.13;25.87;;;14.80;64.00;;;;;;4158564;28;20052;-63
2022/12/18 01:42:19;;;;;;;49.58;26.98;;;14.90;63.80;;;;;;4159351;28;20291;-63
2022/12/18 01:45:05;;;;;;;49.60;25.85;;;14.90;63.50;;;;;;4159406;28;20187;-63
2022/12/18 01:47:48;;;;;;;48.30;26.17;;;14.90;63.20;;;;;;4158481;28;20189;-63
2022/12/18 01:50:34;;;;;;;48.90;25.05;;;15.00;63.10;;;;;;4159020;28;20048;-63
2022/12/18 01:53:18;;;;;;;50.85;27.27;;;15.00;62.70;;;;;;4159188;28;20063;-63
2022/12/18 01:56:00;;;;;;;47.70;26.75;;;15.10;62.70;;;;;;4141518;28;20176;-62
2022/12/18 01:58:42;;;;;;;;;;;15.10;62.70;;;;;;4153766;28;20060;-62
2022/12/18 02:01:24;;;;;;;50.78;26.75;;;15.00;63.90;;;;;;4143006;28;19932;-64
2022/12/18 02:04:19;;;;;;;;;;;15.10;63.10;;;;;;4143242;28;20063;-62
2022/12/18 02:07:10;;;;;;;48.95;24.90;;;15.00;63.00;;;;;;4153005;28;19928;-62
2022/12/18 02:09:59;;;;;;;49.13;26.15;;;14.90;63.10;;;;;;4160981;28;20632;-63
2022/12/18 02:12:46;;;;;;;52.60;27.35;;;14.90;63.10;;;;;;4161620;28;20060;-63
2022/12/18 02:15:33;;;;;;;50.33;27.50;;;14.90;64.20;;;;;;4149881;28;20052;-63
2022/12/18 02:18:19;;;;;;;51.20;28.83;;;14.90;63.30;;;;;;4144543;28;20056;-63
2022/12/18 02:21:12;;;;;;;55.42;28.73;;;14.80;63.30;;;;;;4149971;28;20060;-63
2022/12/18 02:24:00;;;;;;;49.97;28.00;;;14.80;63.30;;;;;;4160915;28;20503;-62
2022/12/18 02:26:48;;;;;;;57.53;29.38;;;14.70;63.70;;;;;;4162092;28;20056;-63
2022/12/18 02:29:38;;;;;;;58.47;29.83;;;14.70;63.60;;;;;;4161571;28;20123;-63
2022/12/18 02:32:25;;;;;;;58.58;30.10;;;14.70;64.20;;;;;;4162556;28;20134;-65
2022/12/18 02:35:08;;;;;;;53.85;28.60;;;14.70;64.40;;;;;;4162048;28;20248;-63
2022/12/18 02:37:51;;;;;;;55.35;29.85;;;14.70;64.10;;;;;;4161153;28;20053;-59
2022/12/18 02:40:33;;;;;;;58.78;29.27;;;14.70;64.10;;;;;;4161276;28;20396;-60
2022/12/18 02:43:16;;;;;;;61.15;31.55;;;14.70;64.30;;;;;;4160906;28;20056;-59
2022/12/18 02:46:00;;;;;;;57.38;28.88;;;14.70;64.30;;;;;;4161142;28;20053;-59
2022/12/18 02:48:44;;;;;;;57.92;30.13;;;14.80;64.10;;;;;;4144671;28;20053;-59
2022/12/18 02:51:32;;;;;;;54.28;29.48;;;14.80;64.00;;;;;;4144771;28;20084;-60
2022/12/18 02:54:24;;;;;;;57.90;30.65;;;14.90;63.60;;;;;;4144729;28;20503;-59
2022/12/18 02:57:14;;;;;;;60.65;30.85;;;14.90;63.30;;;;;;4144197;28;20065;-61
2022/12/18 03:00:03;;;;;;;53.25;28.55;;;14.90;63.00;;;;;;4153422;28;20115;-59
2022/12/18 03:02:49;;;;;;;57.75;31.13;;;15.00;63.20;;;;;;4144730;28;20061;-60
2022/12/18 03:05:35;;;;;;;55.67;30.08;;;15.00;63.10;;;;;;4144362;28;20163;-60
2022/12/18 03:08:21;;;;;;;55.90;29.17;;;14.90;63.00;;;;;;4144476;28;20129;-59
2022/12/18 03:11:05;;;;;;;54.63;28.42;;;14.90;63.10;;;;;;4144336;28;20048;-59
2022/12/18 03:13:51;;;;;;;56.83;30.77;;;14.90;63.20;;;;;;4144011;28;20056;-60
2022/12/18 03:16:36;;;;;;;60.97;30.98;;;14.90;63.40;;;;;;4152095;28;20056;-59
2022/12/18 03:19:23;;;;;;;60.05;31.85;;;14.90;63.30;;;;;;4160120;28;20056;-60
2022/12/18 03:22:08;;;;;;;56.38;30.05;;;14.90;63.20;;;;;;4160429;28;20061;-60
2022/12/18 03:25:03;;;;;;;64.20;32.53;;;14.80;63.10;;;;;;4160178;28;20207;-60
2022/12/18 03:27:48;;;;;;;58.55;31.48;;;14.80;63.40;;;;;;4160317;28;20060;-59
2022/12/18 03:30:34;;;;;;;62.28;30.52;;;14.70;63.70;;;;;;4160419;28;20048;-59
2022/12/18 03:33:22;;;;;;;59.90;31.60;;;14.60;63.90;;;;;;4161187;28;20056;-59
2022/12/18 03:36:05;;;;;;;57.22;29.88;;;14.50;64.40;;;;;;4160363;28;20047;-59
2022/12/18 03:38:46;;;;;;;58.65;30.85;;;14.50;65.10;;;;;;4160293;28;20059;-59
2022/12/18 03:41:33;;;;;;;57.70;30.77;;;14.60;65.00;;;;;;4148261;28;20192;-59
2022/12/18 03:44:34;;;;;;;56.45;28.23;;;14.60;64.50;;;;;;4159866;28;20047;-59
2022/12/18 03:47:21;;;;;;;55.60;29.55;;;14.80;64.20;;;;;;4160268;28;20053;-60
2022/12/18 03:50:09;;;;;;;58.05;30.20;;;14.80;63.60;;;;;;4161024;28;20057;-60
2022/12/18 03:52:59;;;;;;;57.58;29.35;;;14.80;63.40;;;;;;4160021;28;20416;-60
2022/12/18 03:55:42;;;;;;;58.53;29.40;;;14.90;63.50;;;;;;4158608;28;20080;-59
2022/12/18 03:58:26;;;;;;;62.95;30.52;;;15.10;63.30;;;;;;4147310;28;20060;-59
2022/12/18 04:01:26;;;;;;;53.90;29.83;;;15.10;62.80;;;;;;4135329;28;20064;-60
2022/12/18 04:04:09;;;;;;;56.42;29.25;;;15.20;62.30;;;;;;4147255;28;20677;-60
2022/12/18 04:06:54;;;;;;;58.47;29.52;;;15.10;62.20;;;;;;4158397;28;20049;-59
2022/12/18 04:09:37;;;;;;;54.33;30.20;;;15.10;62.30;;;;;;4147037;28;20075;-59
2022/12/18 04:12:18;;;;;;;53.92;27.65;;;15.10;62.30;;;;;;4147015;28;20524;-59
2022/12/18 04:15:00;;;;;;;55.00;27.98;;;15.00;62.30;;;;;;4135888;28;20063;-60
2022/12/18 04:17:48;;;;;;;55.47;28.35;;;15.00;62.60;;;;;;4147343;28;20061;-59
2022/12/18 04:20:31;;;;;;;53.38;27.27;;;15.00;63.00;;;;;;4158332;28;20109;-60
2022/12/18 04:23:14;;;;;;;52.95;27.85;;;15.00;63.00;;;;;;4144424;28;20045;-59
2022/12/18 04:25:55;;;;;;;50.75;27.42;;;15.00;62.70;;;;;;4146746;28;20057;-59
2022/12/18 04:28:49;;;;;;;47.70;26.48;;;15.00;62.70;;;;;;4158496;28;20068;-59
2022/12/18 04:31:30;;;;;;;52.60;26.87;;;15.00;62.90;;;;;;4159823;28;20110;-59
2022/12/18 04:34:12;;;;;;;47.15;25.85;;;14.90;62.80;;;;;;4159317;28;20459;-59
2022/12/18 04:37:00;;;;;;;51.38;26.65;;;14.90;62.80;;;;;;4159369;28;20057;-59
2022/12/18 04:39:44;;;;;;;48.28;25.75;;;14.90;63.20;;;;;;4159229;28;20067;-59
2022/12/18 04:42:33;;;;;;;51.23;25.67;;;14.90;63.20;;;;;;4147998;28;20619;-59
2022/12/18 04:45:14;;;;;;;49.72;26.70;;;15.00;63.30;;;;;;4160449;28;20296;-60
2022/12/18 04:47:54;;;;;;;51.25;26.83;;;15.00;63.00;;;;;;4160396;28;20048;-59
2022/12/18 04:50:35;;;;;;;45.50;24.60;;;15.00;62.70;;;;;;4156489;28;20131;-59
2022/12/18 04:53:16;;;;;;;51.50;26.02;;;15.10;62.60;;;;;;4160586;28;20179;-59
2022/12/18 04:56:06;;;;;;;49.13;26.52;;;15.10;62.30;;;;;;4159633;28;20492;-59
2022/12/18 04:58:47;;;;;;;48.65;26.60;;;15.10;62.00;;;;;;4160278;28;20192;-60
2022/12/18 05:01:28;;;;;;;48.47;25.30;;;15.00;62.20;;;;;;4160062;28;20555;-59
2022/12/18 05:04:14;;;;;;;48.70;24.98;;;15.00;62.50;;;;;;4160058;28;20045;-59
2022/12/18 05:06:55;;;;;;;44.15;24.23;;;14.90;62.60;;;;;;4160094;28;20052;-59
2022/12/18 05:09:36;;;;;;;44.10;24.23;;;14.70;62.80;;;;;;4160071;28;20060;-59
2022/12/18 05:12:18;;;;;;;38.45;22.27;;;14.60;63.40;;;;;;4158369;28;20052;-59
2022/12/18 05:14:59;;;;;;;47.33;24.40;;;14.70;63.80;;;;;;4159716;28;20123;-60
2022/12/18 05:17:40;;;;;;;39.10;21.95;;;14.70;63.80;;;;;;4160096;28;20055;-60
2022/12/18 05:20:21;;;;;;;38.40;22.17;;;14.70;63.40;;;;;;4159794;28;20052;-59
2022/12/18 05:23:02;;;;;;;37.78;22.08;;;14.80;63.30;;;;;;4159797;28;20566;-59
2022/12/18 05:25:43;;;;;;;37.22;21.67;;;14.90;62.90;;;;;;4159781;28;20056;-59
2022/12/18 05:28:28;;;;;;;38.15;22.10;;;15.00;62.50;;;;;;4159117;28;20040;-59
2022/12/18 05:31:09;;;;;;;33.95;20.02;;;15.00;62.10;;;;;;4158834;28;20063;-59
2022/12/18 05:33:50;;;;;;;36.65;21.17;;;15.10;62.20;;;;;;4159096;28;20186;-59
2022/12/18 05:36:31;;;;;;;34.43;21.33;;;15.20;61.90;;;;;;4158855;28;20057;-59
2022/12/18 05:39:12;;;;;;;35.08;19.83;;;15.20;61.50;;;;;;4159220;28;20047;-59
2022/12/18 05:41:53;;;;;;;34.60;19.77;;;15.20;61.40;;;;;;4153030;28;20052;-59
2022/12/18 05:44:35;;;;;;;33.10;19.83;;;15.20;61.30;;;;;;4158601;28;20052;-59
2022/12/18 05:47:16;;;;;;;35.75;20.55;;;15.20;61.10;;;;;;4159723;28;20496;-59
2022/12/18 05:49:57;;;;;;;33.17;19.25;;;15.20;61.00;;;;;;4159580;28;20072;-59
2022/12/18 05:52:38;;;;;;;34.95;19.95;;;15.20;61.20;;;;;;4159226;28;20172;-59
2022/12/18 05:55:18;;;;;;;32.40;19.70;;;15.20;61.30;;;;;;4159323;28;20052;-59
2022/12/18 05:57:59;;;;;;;29.08;17.98;;;15.30;61.00;;;;;;4159472;28;20045;-59
2022/12/18 06:00:43;;;;;;;34.40;19.10;;;15.40;60.70;;;;;;4159245;28;20048;-59
2022/12/18 06:03:25;;;;;;;30.20;19.05;;;15.40;60.70;;;;;;4159170;28;20057;-59
2022/12/18 06:06:16;;;;;;;33.00;19.40;;;15.30;60.70;;;;;;4159604;28;20064;-59
2022/12/18 06:08:58;;;;;;;29.80;18.67;;;15.30;60.60;;;;;;4159377;28;20060;-59
2022/12/18 06:11:39;;;;;;;;;;;15.20;60.70;;;;;;4144691;28;20049;-59
2022/12/18 06:14:19;;;;;;;29.58;18.08;;;15.10;61.30;;;;;;4159383;28;19928;-59
2022/12/18 06:17:01;;;;;;;29.20;18.27;;;15.10;61.80;;;;;;4159113;28;20060;-59
2022/12/18 06:19:42;;;;;;;29.95;17.45;;;15.10;61.60;;;;;;4159464;28;20053;-59
2022/12/18 06:22:23;;;;;;;25.60;17.67;;;15.10;61.30;;;;;;4142915;28;20128;-59
2022/12/18 06:25:05;;;;;;;31.20;18.10;;;15.20;61.30;;;;;;4142837;28;20687;-59
2022/12/18 06:27:48;;;;;;;29.25;17.33;;;15.20;61.10;;;;;;4143014;28;20061;-59
2022/12/18 06:30:28;;;;;;;26.85;16.98;;;15.30;60.90;;;;;;4142891;28;20208;-59
2022/12/18 06:33:11;;;;;;;31.90;17.90;;;15.30;60.70;;;;;;4142482;28;20409;-60
2022/12/18 06:35:52;;;;;;;30.00;17.90;;;15.20;60.60;;;;;;4154118;28;20060;-59
2022/12/18 06:38:40;;;;;;;28.25;17.73;;;15.20;60.60;;;;;;4158953;28;20048;-59
2022/12/18 06:41:22;;;;;;;27.45;17.33;;;15.30;60.70;;;;;;4158882;28;20060;-59
2022/12/18 06:44:02;;;;;;;28.05;17.45;;;15.30;60.20;;;;;;4158871;28;20413;-59
2022/12/18 06:46:44;;;;;;;31.08;17.85;;;15.30;60.20;;;;;;4158554;28;20695;-58
2022/12/18 06:49:26;;;;;;;27.98;18.05;;;15.30;60.10;;;;;;4158430;28;20404;-59
2022/12/18 06:52:10;;;;;;;33.20;18.33;;;15.30;60.00;;;;;;4158770;28;20040;-59
2022/12/18 06:54:51;;;;;;;27.25;18.13;;;15.20;60.10;;;;;;4159663;28;20145;-59
2022/12/18 06:57:32;;;;;;;29.03;18.47;;;15.20;60.30;;;;;;4162145;28;20056;-59
2022/12/18 07:00:14;;;;;;;30.27;18.77;;;15.10;61.40;;;;;;4160811;28;20794;-59
2022/12/18 07:02:55;;;;;;;27.00;16.80;;;15.20;60.60;;;;;;4161218;28;20053;-59
2022/12/18 07:05:40;;;;;;;28.08;17.90;;;15.20;60.50;;;;;;4155826;28;20056;-61
2022/12/18 07:08:21;;;;;;;31.75;18.73;;;15.30;60.40;;;;;;4161478;28;20173;-63
2022/12/18 07:11:05;;;;;;;27.52;17.42;;;15.30;60.10;;;;;;4153846;28;20187;-66
2022/12/18 07:13:46;;;;;;;29.52;18.15;;;15.40;59.70;;;;;;4161347;28;20515;-65
2022/12/18 07:16:28;;;;;;;;;;;15.40;59.60;;;;;;4161625;28;20060;-65
2022/12/18 07:19:09;;;;;;;26.73;17.52;;;15.40;59.70;;;;;;4161258;28;19930;-65
2022/12/18 07:21:52;;;;;;;27.08;16.65;;;15.40;59.80;;;;;;4161186;28;20064;-64
2022/12/18 07:24:34;;;;;;;27.27;17.20;;;15.30;59.60;;;;;;4145439;28;20049;-64
2022/12/18 07:27:14;;;;;;;;;;;15.30;59.90;;;;;;4145759;28;20049;-63
2022/12/18 07:29:55;;;;;;;24.80;16.45;;;15.30;60.70;;;;;;4157677;28;20063;-63
2022/12/18 07:32:36;;;;;;;25.63;16.75;;;15.30;60.60;;;;;;4147853;28;20070;-64
2022/12/18 07:35:17;;;;;;;26.83;17.27;;;15.20;60.20;;;;;;4160594;28;20183;-63
2022/12/18 07:38:04;;;;;;;26.40;16.48;;;15.20;60.00;;;;;;4161584;28;20052;-63
2022/12/18 07:40:45;;;;;;;21.80;15.32;;;15.10;61.20;;;;;;4160899;28;20056;-63
2022/12/18 07:43:26;;;;;;;23.77;16.67;;;15.10;60.30;;;;;;4160542;28;20119;-64
2022/12/18 07:46:08;;;;;;;23.73;16.60;;;15.10;60.20;;;;;;4160865;28;20056;-64
2022/12/18 07:48:49;;;;;;;24.00;15.25;;;15.20;60.90;;;;;;4160228;28;20061;-64
2022/12/18 07:51:30;;;;;;;22.10;15.93;;;15.20;59.70;;;;;;4161149;28;20439;-63
2022/12/18 07:54:12;;;;;;;22.83;15.65;;;15.20;59.40;;;;;;4160925;28;20053;-63
2022/12/18 07:56:54;;;;;;;24.17;15.52;;;15.20;59.20;;;;;;4159598;28;20060;-63
2022/12/18 07:59:34;;;;;;;22.83;16.17;;;15.30;59.00;;;;;;4157791;28;20049;-64
2022/12/18 08:02:15;;;;;;;20.00;14.88;;;15.30;58.70;;;;;;4161251;28;20051;-63
2022/12/18 08:04:56;;;;;;;24.10;15.88;;;15.30;58.40;;;;;;4160853;28;20055;-63
2022/12/18 08:07:37;;;;;;;19.67;14.60;;;15.30;58.40;;;;;;4160273;28;20052;-63
2022/12/18 08:10:20;;;;;;;23.20;15.07;;;15.30;58.10;;;;;;4160792;28;20095;-59
2022/12/18 08:13:00;;;;;;;20.58;15.43;;;15.30;57.70;;;;;;4160633;28;20168;-59
2022/12/18 08:15:44;;;;;;;21.80;14.30;;;15.20;57.60;;;;;;4160650;28;20060;-59
2022/12/18 08:18:26;;;;;;;18.27;14.00;;;15.20;57.70;;;;;;4160372;28;20122;-59
2022/12/18 08:21:10;;;;;;;18.33;14.02;;;15.10;57.50;;;;;;4160567;28;20060;-64
2022/12/18 08:23:51;;;;;;;21.38;14.75;;;15.10;57.30;;;;;;4160589;28;20099;-64
2022/12/18 08:26:34;;;;;;;22.13;14.85;;;15.10;57.30;;;;;;4160767;28;20503;-59
2022/12/18 08:29:15;;;;;;;19.45;14.00;;;15.10;57.10;;;;;;4160717;28;20056;-59
2022/12/18 08:32:01;;;;;;;18.63;13.32;;;15.10;57.00;;;;;;4144862;28;20600;-59
2022/12/18 08:34:42;;;;;;;22.98;14.98;;;15.00;57.00;;;;;;4150315;28;20063;-59
2022/12/18 08:37:23;;;;;;;18.13;13.40;;;15.00;57.10;;;;;;4160497;28;20053;-59
2022/12/18 08:40:05;;;;;;;17.52;13.15;;;14.90;57.20;;;;;;4144073;28;20061;-59
2022/12/18 08:45:42;;;;;;;18.90;13.82;;;14.80;57.40;;;;;;4126181;28;20261;-60
2022/12/18 08:48:22;;;;;;;17.92;12.38;;;14.70;57.90;;;;;;4154812;28;20400;-59
2022/12/18 08:51:03;;;;;;;17.33;12.80;;;14.70;58.00;;;;;;4159594;28;20499;-59
2022/12/18 08:53:45;;;;;;;17.60;13.10;;;14.70;58.00;;;;;;4157984;28;20064;-59
2022/12/18 08:56:26;;;;;;;19.10;13.27;;;14.80;58.00;;;;;;4159851;28;20060;-59
2022/12/18 08:59:10;;;;;;;15.45;11.85;;;14.90;57.70;;;;;;4160374;28;20056;-59
2022/12/18 09:01:57;;;;;;;16.88;11.70;;;14.90;57.30;;;;;;4158445;28;20048;-59
2022/12/18 09:04:39;;;;;;;16.30;11.93;;;15.00;57.30;;;;;;4148564;28;20052;-59
2022/12/18 09:07:20;;;;;;;17.70;12.60;;;15.00;57.20;;;;;;4158419;28;20114;-63
2022/12/18 09:10:01;;;;;;;18.58;11.48;;;15.00;56.70;;;;;;4159531;28;20047;-59
2022/12/18 09:12:42;;;;;;;17.17;13.20;;;15.00;56.50;;;;;;4159342;28;20052;-59
2022/12/18 09:15:24;;;;;;;19.55;12.65;;;15.00;56.40;;;;;;4153443;28;20187;-59
2022/12/18 09:18:05;;;;;;;18.25;12.35;;;15.00;56.30;;;;;;4158366;28;20060;-58
2022/12/18 09:20:46;;;;;;;18.95;13.52;;;15.00;56.60;;;;;;4144273;28;20089;-58
2022/12/18 09:23:27;;;;;;;17.58;13.40;;;15.00;56.60;;;;;;4150651;28;20131;-58
2022/12/18 09:26:10;;;;;;;16.77;12.65;;;15.00;56.60;;;;;;4159116;28;20056;-59
2022/12/18 09:28:50;;;;;;;16.40;12.40;;;15.00;56.60;;;;;;4146473;28;20095;-60
2022/12/18 09:31:32;;;;;;;15.65;11.70;;;14.90;56.90;;;;;;4159886;28;20294;-65
2022/12/18 09:34:13;;;;;;;15.68;11.90;;;14.90;56.80;;;;;;4154543;28;20052;-65
2022/12/18 09:36:54;;;;;;;14.53;11.83;;;14.80;57.00;;;;;;4151149;28;20060;-64
2022/12/18 09:39:37;;;;;;;17.77;11.90;;;14.80;57.20;;;;;;4155952;28;20064;-65
2022/12/18 09:42:22;;;;;;;15.77;11.18;;;15.10;56.90;;;;;;4145575;28;20095;-65
2022/12/18 09:45:04;;;;;;;15.07;11.23;;;15.50;55.90;;;;;;4145114;28;20045;-65
2022/12/18 09:47:49;;;;;;;15.38;11.30;;;15.90;55.10;;;;;;4147312;28;20064;-64
2022/12/18 09:50:33;;;;;;;16.58;12.30;;;16.30;54.10;;;;;;4150713;28;20040;-64
2022/12/18 09:53:19;;;;;;;16.10;11.70;;;16.70;53.20;;;;;;4140659;28;20053;-64
2022/12/18 09:56:02;;;;;;;13.90;10.00;;;17.10;52.10;;;;;;4141078;28;20220;-65
2022/12/18 09:58:49;;;;;;;15.90;11.45;;;17.50;51.20;;;;;;4141745;28;20068;-65
2022/12/18 10:01:32;;;;;;;14.82;10.90;;;17.80;50.30;;;;;;4150720;28;20052;-64
2022/12/18 10:04:25;;;;;;;14.30;9.95;;;18.10;49.70;;;;;;4141679;28;20508;-63
2022/12/18 10:07:15;;;;;;;13.77;10.07;;;18.20;49.10;;;;;;4145624;28;20196;-64
2022/12/18 10:10:01;;;;;;;12.25;9.45;;;18.20;48.70;;;;;;4149823;28;20053;-64
2022/12/18 10:12:53;;;;;;;12.52;9.68;;;18.10;48.70;;;;;;4150376;28;20519;-64
2022/12/18 10:15:46;;;;;;;13.07;9.77;;;18.00;48.70;;;;;;4151998;28;20512;-65
2022/12/18 10:18:39;;;;;;;13.05;9.55;;;17.70;48.80;;;;;;4147250;28;20064;-65
2022/12/18 10:21:31;;;;;;;11.63;9.18;;;17.50;49.60;;;;;;4146963;28;20051;-65
2022/12/18 10:24:21;;;;;;;9.75;7.75;;;17.40;49.90;;;;;;4146218;28;20423;-65
2022/12/18 10:27:13;;;;;;;10.80;8.80;;;17.40;50.20;;;;;;4141537;28;20165;-65
2022/12/18 10:29:55;;;;;;;12.57;8.80;;;17.40;49.70;;;;;;4145799;28;20060;-64
2022/12/18 10:32:36;;;;;;;9.63;8.65;;;17.40;50.00;;;;;;4156039;28;20530;-65
2022/12/18 10:35:20;;;;;;;12.30;8.40;;;17.50;50.10;;;;;;4152055;28;20103;-63
2022/12/18 10:38:21;;;;;;;12.35;8.40;;;17.60;50.00;;;;;;4145260;28;20125;-64
2022/12/18 10:41:04;;;;;;;11.20;7.88;;;17.70;49.70;;;;;;4149630;28;20057;-64
2022/12/18 10:43:45;;;;;;;13.65;8.32;;;17.80;49.50;;;;;;4150395;28;20056;-64
2022/12/18 10:46:26;;;;;;;7.95;7.03;;;18.00;49.50;;;;;;4149659;28;20069;-65
2022/12/18 10:49:20;;;;;;;9.45;7.30;;;18.10;49.20;;;;;;4150316;28;20060;-65
2022/12/18 10:52:16;;;;;;;9.50;6.82;;;18.10;48.40;;;;;;4144664;28;20064;-63
2022/12/18 10:55:03;;;;;;;8.82;6.60;;;18.30;48.70;;;;;;4147123;28;20044;-65
2022/12/18 10:57:43;;;;;;;8.35;7.13;;;18.40;48.10;;;;;;4143349;28;20600;-65
2022/12/18 11:00:27;;;;;;;6.72;6.03;;;18.40;48.50;;;;;;4148193;28;20196;-62
2022/12/18 11:03:31;;;;;;;7.03;5.82;;;18.40;48.20;;;;;;4143763;28;20069;-63
2022/12/18 11:06:14;;;;;;;6.55;5.85;;;18.40;47.90;;;;;;4149273;28;20056;-63
2022/12/18 11:09:00;;;;;;;6.93;5.85;;;18.30;48.20;;;;;;4151034;28;20061;-63
2022/12/18 11:11:49;;;;;;;6.78;6.07;;;18.20;48.30;;;;;;4143540;28;20069;-62
2022/12/18 11:14:32;;;;;;;7.15;5.93;;;18.00;48.60;;;;;;4143399;28;20088;-63
2022/12/18 11:17:20;;;;;;;7.80;6.05;;;17.80;49.10;;;;;;4148196;28;20827;-64
2022/12/18 11:20:08;;;;;;;5.93;5.15;;;17.70;49.50;;;;;;4143602;28;20080;-62
2022/12/18 11:22:57;;;;;;;6.18;5.50;;;17.60;50.10;;;;;;4144974;28;20052;-62
2022/12/18 11:25:39;;;;;;;5.47;4.95;;;17.70;50.30;;;;;;4149856;28;20402;-62
2022/12/18 11:28:37;;;;;;;7.18;6.00;;;17.80;50.40;;;;;;4144014;28;20088;-65
2022/12/18 11:31:27;;;;;;;5.63;5.03;;;17.90;49.90;;;;;;4143071;28;20052;-64
2022/12/18 11:34:14;;;;;;;7.20;5.50;;;18.10;50.00;;;;;;4146457;28;20570;-65
2022/12/18 11:37:12;;;;;;;6.82;5.07;;;18.20;50.10;;;;;;4158584;28;20075;-62
2022/12/18 11:39:58;;;;;;;5.65;5.00;;;18.30;49.90;;;;;;4147757;28;20131;-65
2022/12/18 11:42:46;;;;;;;6.03;5.50;;;18.40;49.60;;;;;;4154470;28;20060;-64
2022/12/18 11:45:32;;;;;;;5.40;4.90;;;18.50;49.50;;;;;;4148136;28;20053;-63
2022/12/18 11:48:18;;;;;;;6.20;4.93;;;18.50;49.30;;;;;;4143042;28;20061;-64
2022/12/18 11:51:02;;;;;;;5.05;4.65;;;18.60;49.00;;;;;;4144381;28;20065;-63
2022/12/18 11:53:43;;;;;;;5.50;5.00;;;18.50;48.90;;;;;;4151195;28;20100;-64
2022/12/18 11:56:33;;;;;;;5.47;4.88;;;18.40;49.20;;;;;;4147409;28;20052;-63
2022/12/18 11:59:25;;;;;;;6.20;5.00;;;18.20;49.40;;;;;;4150921;28;20063;-63
2022/12/18 12:02:25;;;;;;;5.30;4.63;;;18.00;49.80;;;;;;4156984;28;20060;-64
2022/12/18 12:05:23;;;;;;;5.88;5.07;;;17.80;50.40;;;;;;4149980;28;20126;-64
2022/12/18 12:08:13;;;;;;;5.72;4.93;;;17.60;51.00;;;;;;4148007;28;20053;-63
2022/12/18 12:11:04;;;;;;;5.20;4.70;;;17.50;51.50;;;;;;4147010;28;20579;-63
2022/12/18 12:13:52;;;;;;;6.40;5.25;;;17.50;51.60;;;;;;4154173;28;20559;-63
2022/12/18 12:16:38;;;;;;;5.30;4.80;;;17.70;51.60;;;;;;4142297;28;20581;-64
2022/12/18 12:19:34;;;;;;;5.40;4.80;;;17.90;51.80;;;;;;4142524;28;20397;-62
2022/12/18 12:22:21;;;;;;;5.88;4.82;;;18.10;51.20;;;;;;4146150;28;20624;-62
2022/12/18 12:25:21;;;;;;;6.50;5.03;;;18.40;50.60;;;;;;4143004;28;20053;-58
2022/12/18 12:28:15;;;;;;;5.68;4.80;;;18.60;50.00;;;;;;4149195;28;20064;-58
2022/12/18 12:31:05;;;;;;;6.75;5.15;;;18.70;49.70;;;;;;4140999;28;20073;-59
2022/12/18 12:33:57;;;;;;;7.60;5.20;;;18.80;49.20;;;;;;4145537;28;20084;-59
2022/12/18 12:36:50;;;;;;;6.25;4.88;;;18.90;49.10;;;;;;4148497;28;20060;-59
2022/12/18 12:39:34;;;;;;;6.00;4.97;;;18.70;49.20;;;;;;4148152;28;20187;-58
2022/12/18 12:45:27;;;;;;;4.72;4.00;;;18.40;49.90;;;;;;4149694;28;20053;-65
2022/12/18 12:48:19;;;;;;;6.13;4.70;;;18.30;50.20;;;;;;4141876;28;20103;-67
2022/12/18 12:51:04;;;;;;;6.07;4.63;;;18.30;50.20;;;;;;4144000;28;20059;-65
2022/12/18 12:53:47;;;;;;;7.88;4.55;;;18.20;50.30;;;;;;4148548;28;20056;-63
2022/12/18 12:56:36;;;;;;;6.78;4.72;;;18.20;50.30;;;;;;4140993;28;20554;-64
2022/12/18 12:59:25;;;;;;;4.65;4.00;;;18.20;50.40;;;;;;4150614;28;20091;-65
2022/12/18 13:02:15;;;;;;;4.85;4.38;;;18.20;50.40;;;;;;4149433;28;20528;-64
2022/12/18 13:05:01;;;;;;;5.60;5.00;;;18.20;50.20;;;;;;4150728;28;20133;-65
2022/12/18 13:07:51;;;;;;;5.80;4.35;;;18.20;50.40;;;;;;4151963;28;20060;-63
2022/12/18 13:10:38;;;;;;;5.25;4.75;;;18.20;50.40;;;;;;4143312;28;20079;-63
2022/12/18 13:13:20;;;;;;;5.75;4.53;;;18.30;50.40;;;;;;4156390;28;20187;-63
2022/12/18 13:16:07;;;;;;;5.40;4.78;;;18.30;50.20;;;;;;4148509;28;20127;-63
2022/12/18 13:18:52;;;;;;;5.38;4.70;;;18.30;50.20;;;;;;4148780;28;20554;-63
2022/12/18 13:21:35;;;;;;;6.32;4.63;;;18.30;50.20;;;;;;4145763;28;20057;-62
2022/12/18 13:24:21;;;;;;;5.82;4.40;;;18.30;50.20;;;;;;4147707;28;20052;-63
2022/12/18 13:27:41;;;;;;;6.07;4.75;;;18.30;50.10;;;;;;4147238;28;20211;-63
2022/12/18 13:30:48;;;;;;;6.57;4.80;;;18.30;50.20;;;;;;4150913;28;20072;-63
2022/12/18 13:33:49;;;;;;;6.13;4.57;;;18.40;50.10;;;;;;4147315;28;20456;-65
2022/12/18 13:36:50;;;;;;;4.72;4.32;;;18.40;49.80;;;;;;4140600;28;20120;-64
2022/12/18 13:39:35;;;;;;;7.13;4.53;;;18.40;50.10;;;;;;4152161;28;20189;-63
2022/12/18 13:45:48;;;;;;;5.22;4.72;;;18.30;49.90;;;;;;4139928;28;20048;-63
2022/12/18 13:48:32;;;;;;;5.95;4.50;;;18.30;50.10;;;;;;4155687;28;20531;-64
2022/12/18 13:51:20;;;;;;;5.07;4.57;;;18.30;50.50;;;;;;4159286;28;20049;-62
2022/12/18 13:54:03;;;;;;;5.72;4.60;;;18.20;50.60;;;;;;4158273;28;20052;-65
2022/12/18 13:56:46;;;;;;;5.28;4.70;;;18.20;50.90;;;;;;4157300;28;20405;-64
2022/12/18 13:59:35;;;;;;;5.30;4.80;;;18.20;51.00;;;;;;4159605;28;20244;-65
2022/12/18 14:02:18;;;;;;;5.97;4.72;;;18.20;51.00;;;;;;4157992;28;20044;-64
2022/12/18 14:04:59;;;;;;;5.72;4.80;;;18.30;51.20;;;;;;4158505;28;20048;-64
2022/12/18 14:07:40;;;;;;;5.32;4.82;;;18.30;51.30;;;;;;4158750;28;20052;-64
2022/12/18 14:10:22;;;;;;;5.95;5.32;;;18.30;51.40;;;;;;4159217;28;20512;-64
2022/12/18 14:13:27;;;;;;;8.93;5.80;;;18.30;51.40;;;;;;4159029;28;20060;-64